sensor_id;sensor_type;location;lat;lon;timestamp;P1;durP1;ratioP1;P2;durP2;ratioP2
50379;SDS011;37474;59.468;18.040;2023-05-07T00:02:00;5.17;;;2.53;;
50379;SDS011;37474;59.468;18.040;2023-05-07T00:04:31;7.57;;;2.80;;
50379;SDS011;37474;59.468;18.040;2023-05-07T00:07:03;3.73;;;2.17;;
50379;SDS011;37474;59.468;18.040;2023-05-07T00:09:33;7.70;;;2.60;;
50379;SDS011;37474;59.468;18.040;2023-05-07T00:12:01;5.85;;;2.40;;
50379;SDS011;37474;59.468;18.040;2023-05-07T00:14:29;4.53;;;2.30;;
50379;SDS011;37474;59.468;18.040;2023-05-07T00:16:57;5.80;;;2.50;;
50379;SDS011;37474;59.468;18.040;2023-05-07T00:19:25;7.80;;;2.60;;
50379;SDS011;37474;59.468;18.040;2023-05-07T00:21:53;6.00;;;2.67;;
50379;SDS011;37474;59.468;18.040;2023-05-07T00:24:22;7.20;;;2.37;;
50379;SDS011;37474;59.468;18.040;2023-05-07T00:26:51;4.20;;;2.57;;
50379;SDS011;37474;59.468;18.040;2023-05-07T00:29:20;6.68;;;2.60;;
50379;SDS011;37474;59.468;18.040;2023-05-07T00:31:48;7.00;;;2.40;;
50379;SDS011;37474;59.468;18.040;2023-05-07T00:34:17;6.23;;;2.90;;
50379;SDS011;37474;59.468;18.040;2023-05-07T00:36:45;4.77;;;2.30;;
50379;SDS011;37474;59.468;18.040;2023-05-07T00:39:13;4.43;;;2.60;;
50379;SDS011;37474;59.468;18.040;2023-05-07T00:41:41;5.40;;;2.13;;
50379;SDS011;37474;59.468;18.040;2023-05-07T00:44:11;5.40;;;2.80;;
50379;SDS011;37474;59.468;18.040;2023-05-07T00:46:39;8.70;;;2.95;;
50379;SDS011;37474;59.468;18.040;2023-05-07T00:49:07;5.60;;;2.27;;
50379;SDS011;37474;59.468;18.040;2023-05-07T00:51:36;6.33;;;2.50;;
50379;SDS011;37474;59.468;18.040;2023-05-07T00:54:04;5.33;;;2.40;;
50379;SDS011;37474;59.468;18.040;2023-05-07T00:56:32;5.20;;;2.60;;
50379;SDS011;37474;59.468;18.040;2023-05-07T00:59:01;5.80;;;2.33;;
50379;SDS011;37474;59.468;18.040;2023-05-07T01:01:30;3.23;;;2.30;;
50379;SDS011;37474;59.468;18.040;2023-05-07T01:06:28;3.80;;;2.47;;
50379;SDS011;37474;59.468;18.040;2023-05-07T01:08:58;4.60;;;2.47;;
50379;SDS011;37474;59.468;18.040;2023-05-07T01:11:27;3.10;;;2.40;;
50379;SDS011;37474;59.468;18.040;2023-05-07T01:13:55;4.27;;;2.33;;
50379;SDS011;37474;59.468;18.040;2023-05-07T01:16:27;7.77;;;2.73;;
50379;SDS011;37474;59.468;18.040;2023-05-07T01:18:56;4.30;;;2.90;;
50379;SDS011;37474;59.468;18.040;2023-05-07T01:21:25;6.50;;;2.67;;
50379;SDS011;37474;59.468;18.040;2023-05-07T01:23:55;4.80;;;2.70;;
50379;SDS011;37474;59.468;18.040;2023-05-07T01:26:24;5.18;;;2.67;;
50379;SDS011;37474;59.468;18.040;2023-05-07T01:28:52;7.00;;;2.77;;
50379;SDS011;37474;59.468;18.040;2023-05-07T01:31:20;5.00;;;2.70;;
50379;SDS011;37474;59.468;18.040;2023-05-07T01:33:49;4.53;;;3.13;;
50379;SDS011;37474;59.468;18.040;2023-05-07T01:36:20;4.13;;;2.63;;
50379;SDS011;37474;59.468;18.040;2023-05-07T01:38:52;4.00;;;2.70;;
50379;SDS011;37474;59.468;18.040;2023-05-07T01:41:22;7.20;;;2.87;;
50379;SDS011;37474;59.468;18.040;2023-05-07T01:43:51;8.07;;;2.90;;
50379;SDS011;37474;59.468;18.040;2023-05-07T01:46:19;3.20;;;2.40;;
50379;SDS011;37474;59.468;18.040;2023-05-07T01:48:48;5.37;;;2.33;;
50379;SDS011;37474;59.468;18.040;2023-05-07T01:51:19;5.68;;;2.55;;
50379;SDS011;37474;59.468;18.040;2023-05-07T01:53:48;6.32;;;2.83;;
50379;SDS011;37474;59.468;18.040;2023-05-07T01:56:17;4.83;;;2.57;;
50379;SDS011;37474;59.468;18.040;2023-05-07T01:58:47;5.00;;;2.37;;
50379;SDS011;37474;59.468;18.040;2023-05-07T02:01:17;5.47;;;2.97;;
50379;SDS011;37474;59.468;18.040;2023-05-07T02:03:46;5.90;;;2.90;;
50379;SDS011;37474;59.468;18.040;2023-05-07T02:06:14;3.60;;;2.40;;
50379;SDS011;37474;59.468;18.040;2023-05-07T02:08:42;5.13;;;2.73;;
50379;SDS011;37474;59.468;18.040;2023-05-07T02:11:11;5.83;;;2.90;;
50379;SDS011;37474;59.468;18.040;2023-05-07T02:13:41;8.27;;;2.50;;
50379;SDS011;37474;59.468;18.040;2023-05-07T02:16:10;6.82;;;3.22;;
50379;SDS011;37474;59.468;18.040;2023-05-07T02:18:40;5.63;;;2.70;;
50379;SDS011;37474;59.468;18.040;2023-05-07T02:21:08;6.50;;;2.70;;
50379;SDS011;37474;59.468;18.040;2023-05-07T02:23:36;5.97;;;2.57;;
50379;SDS011;37474;59.468;18.040;2023-05-07T02:26:06;6.43;;;2.70;;
50379;SDS011;37474;59.468;18.040;2023-05-07T02:28:34;4.97;;;2.53;;
50379;SDS011;37474;59.468;18.040;2023-05-07T02:31:02;3.40;;;2.47;;
50379;SDS011;37474;59.468;18.040;2023-05-07T02:33:32;6.17;;;2.83;;
50379;SDS011;37474;59.468;18.040;2023-05-07T02:36:07;5.70;;;2.83;;
50379;SDS011;37474;59.468;18.040;2023-05-07T02:38:36;4.37;;;2.50;;
50379;SDS011;37474;59.468;18.040;2023-05-07T02:41:04;5.23;;;2.83;;
50379;SDS011;37474;59.468;18.040;2023-05-07T02:43:32;9.60;;;2.67;;
50379;SDS011;37474;59.468;18.040;2023-05-07T02:46:01;4.53;;;2.40;;
50379;SDS011;37474;59.468;18.040;2023-05-07T02:48:31;5.03;;;2.90;;
50379;SDS011;37474;59.468;18.040;2023-05-07T02:51:00;4.35;;;2.33;;
50379;SDS011;37474;59.468;18.040;2023-05-07T02:53:29;4.47;;;2.70;;
50379;SDS011;37474;59.468;18.040;2023-05-07T02:55:59;9.45;;;2.50;;
50379;SDS011;37474;59.468;18.040;2023-05-07T02:58:28;4.47;;;2.72;;
50379;SDS011;37474;59.468;18.040;2023-05-07T03:00:56;4.90;;;2.70;;
50379;SDS011;37474;59.468;18.040;2023-05-07T03:03:25;4.87;;;2.80;;
50379;SDS011;37474;59.468;18.040;2023-05-07T03:05:54;5.97;;;3.27;;
50379;SDS011;37474;59.468;18.040;2023-05-07T03:08:23;4.15;;;2.53;;
50379;SDS011;37474;59.468;18.040;2023-05-07T03:10:51;3.57;;;2.50;;
50379;SDS011;37474;59.468;18.040;2023-05-07T03:13:19;4.70;;;2.83;;
50379;SDS011;37474;59.468;18.040;2023-05-07T03:15:48;6.37;;;2.70;;
50379;SDS011;37474;59.468;18.040;2023-05-07T03:18:16;7.27;;;3.20;;
50379;SDS011;37474;59.468;18.040;2023-05-07T03:20:44;3.53;;;2.53;;
50379;SDS011;37474;59.468;18.040;2023-05-07T03:23:13;5.70;;;2.80;;
50379;SDS011;37474;59.468;18.040;2023-05-07T03:25:42;4.77;;;2.53;;
50379;SDS011;37474;59.468;18.040;2023-05-07T03:28:09;5.67;;;2.87;;
50379;SDS011;37474;59.468;18.040;2023-05-07T03:30:38;4.90;;;2.60;;
50379;SDS011;37474;59.468;18.040;2023-05-07T03:33:06;5.87;;;3.10;;
50379;SDS011;37474;59.468;18.040;2023-05-07T03:35:34;5.23;;;2.73;;
50379;SDS011;37474;59.468;18.040;2023-05-07T03:38:02;4.27;;;2.67;;
50379;SDS011;37474;59.468;18.040;2023-05-07T03:40:32;6.17;;;3.07;;
50379;SDS011;37474;59.468;18.040;2023-05-07T03:43:00;4.63;;;2.60;;
50379;SDS011;37474;59.468;18.040;2023-05-07T03:45:28;6.17;;;2.70;;
50379;SDS011;37474;59.468;18.040;2023-05-07T03:47:56;5.40;;;2.87;;
50379;SDS011;37474;59.468;18.040;2023-05-07T03:50:24;4.77;;;2.60;;
50379;SDS011;37474;59.468;18.040;2023-05-07T03:52:52;4.40;;;2.50;;
50379;SDS011;37474;59.468;18.040;2023-05-07T03:55:21;8.70;;;2.60;;
50379;SDS011;37474;59.468;18.040;2023-05-07T03:57:50;5.33;;;2.93;;
50379;SDS011;37474;59.468;18.040;2023-05-07T04:00:18;4.03;;;2.60;;
50379;SDS011;37474;59.468;18.040;2023-05-07T04:02:48;4.78;;;2.75;;
50379;SDS011;37474;59.468;18.040;2023-05-07T04:05:16;8.00;;;3.43;;
50379;SDS011;37474;59.468;18.040;2023-05-07T04:07:44;5.63;;;2.73;;
50379;SDS011;37474;59.468;18.040;2023-05-07T04:10:14;8.27;;;2.85;;
50379;SDS011;37474;59.468;18.040;2023-05-07T04:12:42;4.53;;;2.70;;
50379;SDS011;37474;59.468;18.040;2023-05-07T04:15:12;5.90;;;2.77;;
50379;SDS011;37474;59.468;18.040;2023-05-07T04:17:40;4.25;;;2.92;;
50379;SDS011;37474;59.468;18.040;2023-05-07T04:20:09;2.53;;;2.30;;
50379;SDS011;37474;59.468;18.040;2023-05-07T04:22:38;4.53;;;2.45;;
50379;SDS011;37474;59.468;18.040;2023-05-07T04:25:07;8.00;;;2.50;;
50379;SDS011;37474;59.468;18.040;2023-05-07T04:27:36;5.35;;;2.80;;
50379;SDS011;37474;59.468;18.040;2023-05-07T04:30:08;5.53;;;2.37;;
50379;SDS011;37474;59.468;18.040;2023-05-07T04:32:38;5.23;;;2.63;;
50379;SDS011;37474;59.468;18.040;2023-05-07T04:35:06;4.38;;;2.40;;
50379;SDS011;37474;59.468;18.040;2023-05-07T04:37:34;6.33;;;2.60;;
50379;SDS011;37474;59.468;18.040;2023-05-07T04:40:03;5.60;;;2.60;;
50379;SDS011;37474;59.468;18.040;2023-05-07T04:42:31;3.97;;;2.30;;
50379;SDS011;37474;59.468;18.040;2023-05-07T04:44:59;4.50;;;2.20;;
50379;SDS011;37474;59.468;18.040;2023-05-07T04:47:28;6.87;;;2.30;;
50379;SDS011;37474;59.468;18.040;2023-05-07T04:49:58;5.47;;;2.50;;
50379;SDS011;37474;59.468;18.040;2023-05-07T04:52:26;5.30;;;2.42;;
50379;SDS011;37474;59.468;18.040;2023-05-07T04:54:54;4.57;;;2.70;;
50379;SDS011;37474;59.468;18.040;2023-05-07T04:57:22;4.63;;;2.50;;
50379;SDS011;37474;59.468;18.040;2023-05-07T04:59:50;3.73;;;2.20;;
50379;SDS011;37474;59.468;18.040;2023-05-07T05:02:18;4.00;;;2.47;;
50379;SDS011;37474;59.468;18.040;2023-05-07T05:04:49;4.13;;;2.20;;
50379;SDS011;37474;59.468;18.040;2023-05-07T05:07:18;3.73;;;2.63;;
50379;SDS011;37474;59.468;18.040;2023-05-07T05:09:48;4.03;;;2.80;;
50379;SDS011;37474;59.468;18.040;2023-05-07T05:12:16;5.77;;;2.40;;
50379;SDS011;37474;59.468;18.040;2023-05-07T05:14:44;3.33;;;2.23;;
50379;SDS011;37474;59.468;18.040;2023-05-07T05:17:12;2.90;;;1.90;;
50379;SDS011;37474;59.468;18.040;2023-05-07T05:19:40;5.07;;;2.60;;
50379;SDS011;37474;59.468;18.040;2023-05-07T05:22:08;5.23;;;1.90;;
50379;SDS011;37474;59.468;18.040;2023-05-07T05:24:37;4.37;;;2.10;;
50379;SDS011;37474;59.468;18.040;2023-05-07T05:27:05;3.27;;;2.07;;
50379;SDS011;37474;59.468;18.040;2023-05-07T05:29:33;3.67;;;1.63;;
50379;SDS011;37474;59.468;18.040;2023-05-07T05:32:01;2.80;;;1.63;;
50379;SDS011;37474;59.468;18.040;2023-05-07T05:34:30;3.23;;;1.90;;
50379;SDS011;37474;59.468;18.040;2023-05-07T05:36:59;3.63;;;1.63;;
50379;SDS011;37474;59.468;18.040;2023-05-07T05:39:27;3.30;;;1.80;;
50379;SDS011;37474;59.468;18.040;2023-05-07T05:41:57;2.43;;;1.67;;
50379;SDS011;37474;59.468;18.040;2023-05-07T05:44:25;3.20;;;1.70;;
50379;SDS011;37474;59.468;18.040;2023-05-07T05:46:53;3.20;;;1.63;;
50379;SDS011;37474;59.468;18.040;2023-05-07T05:49:24;4.37;;;2.00;;
50379;SDS011;37474;59.468;18.040;2023-05-07T05:51:52;3.80;;;1.60;;
50379;SDS011;37474;59.468;18.040;2023-05-07T05:54:20;2.60;;;1.77;;
50379;SDS011;37474;59.468;18.040;2023-05-07T05:56:48;3.20;;;1.73;;
50379;SDS011;37474;59.468;18.040;2023-05-07T05:59:17;4.37;;;1.97;;
50379;SDS011;37474;59.468;18.040;2023-05-07T06:01:46;2.47;;;1.60;;
50379;SDS011;37474;59.468;18.040;2023-05-07T06:04:14;2.77;;;1.63;;
50379;SDS011;37474;59.468;18.040;2023-05-07T06:06:42;2.27;;;1.60;;
50379;SDS011;37474;59.468;18.040;2023-05-07T06:09:10;2.27;;;1.63;;
50379;SDS011;37474;59.468;18.040;2023-05-07T06:11:38;2.73;;;1.40;;
50379;SDS011;37474;59.468;18.040;2023-05-07T06:14:09;4.87;;;1.80;;
50379;SDS011;37474;59.468;18.040;2023-05-07T06:16:39;2.53;;;1.20;;
50379;SDS011;37474;59.468;18.040;2023-05-07T06:19:07;2.20;;;1.40;;
50379;SDS011;37474;59.468;18.040;2023-05-07T06:21:35;2.87;;;1.53;;
50379;SDS011;37474;59.468;18.040;2023-05-07T06:24:03;4.70;;;1.70;;
50379;SDS011;37474;59.468;18.040;2023-05-07T06:26:31;2.23;;;1.30;;
50379;SDS011;37474;59.468;18.040;2023-05-07T06:28:59;2.03;;;1.27;;
50379;SDS011;37474;59.468;18.040;2023-05-07T06:31:29;2.30;;;1.43;;
50379;SDS011;37474;59.468;18.040;2023-05-07T06:34:00;3.30;;;1.37;;
50379;SDS011;37474;59.468;18.040;2023-05-07T06:36:28;3.58;;;1.10;;
50379;SDS011;37474;59.468;18.040;2023-05-07T06:38:57;4.43;;;1.87;;
50379;SDS011;37474;59.468;18.040;2023-05-07T06:41:25;3.87;;;1.27;;
50379;SDS011;37474;59.468;18.040;2023-05-07T06:43:53;4.70;;;1.50;;
50379;SDS011;37474;59.468;18.040;2023-05-07T06:46:21;1.53;;;1.17;;
50379;SDS011;37474;59.468;18.040;2023-05-07T06:48:51;2.33;;;1.30;;
50379;SDS011;37474;59.468;18.040;2023-05-07T06:51:21;5.17;;;1.50;;
50379;SDS011;37474;59.468;18.040;2023-05-07T06:53:49;1.70;;;1.30;;
50379;SDS011;37474;59.468;18.040;2023-05-07T06:56:17;2.27;;;1.30;;
50379;SDS011;37474;59.468;18.040;2023-05-07T06:58:45;2.17;;;1.30;;
50379;SDS011;37474;59.468;18.040;2023-05-07T07:01:13;2.10;;;1.20;;
50379;SDS011;37474;59.468;18.040;2023-05-07T07:03:41;4.67;;;1.27;;
50379;SDS011;37474;59.468;18.040;2023-05-07T07:06:09;4.00;;;1.50;;
50379;SDS011;37474;59.468;18.040;2023-05-07T07:08:39;2.80;;;1.30;;
50379;SDS011;37474;59.468;18.040;2023-05-07T07:11:07;2.22;;;1.30;;
50379;SDS011;37474;59.468;18.040;2023-05-07T07:13:36;1.57;;;1.17;;
50379;SDS011;37474;59.468;18.040;2023-05-07T07:16:04;3.87;;;1.50;;
50379;SDS011;37474;59.468;18.040;2023-05-07T07:18:33;2.10;;;1.40;;
50379;SDS011;37474;59.468;18.040;2023-05-07T07:21:02;3.63;;;1.10;;
50379;SDS011;37474;59.468;18.040;2023-05-07T07:23:30;1.70;;;1.20;;
50379;SDS011;37474;59.468;18.040;2023-05-07T07:25:59;2.00;;;1.33;;
50379;SDS011;37474;59.468;18.040;2023-05-07T07:28:27;2.13;;;1.20;;
50379;SDS011;37474;59.468;18.040;2023-05-07T07:30:58;2.30;;;1.35;;
50379;SDS011;37474;59.468;18.040;2023-05-07T07:33:26;1.37;;;1.23;;
50379;SDS011;37474;59.468;18.040;2023-05-07T07:35:55;1.60;;;1.20;;
50379;SDS011;37474;59.468;18.040;2023-05-07T07:38:23;2.80;;;1.30;;
50379;SDS011;37474;59.468;18.040;2023-05-07T07:40:51;5.10;;;1.13;;
50379;SDS011;37474;59.468;18.040;2023-05-07T07:43:20;1.70;;;1.23;;
50379;SDS011;37474;59.468;18.040;2023-05-07T07:45:52;4.20;;;1.50;;
50379;SDS011;37474;59.468;18.040;2023-05-07T07:48:20;2.87;;;1.30;;
50379;SDS011;37474;59.468;18.040;2023-05-07T07:50:50;2.00;;;1.00;;
50379;SDS011;37474;59.468;18.040;2023-05-07T07:53:18;2.00;;;1.13;;
50379;SDS011;37474;59.468;18.040;2023-05-07T07:55:46;1.53;;;1.10;;
50379;SDS011;37474;59.468;18.040;2023-05-07T07:58:14;1.43;;;1.20;;
50379;SDS011;37474;59.468;18.040;2023-05-07T08:00:43;4.10;;;1.27;;
50379;SDS011;37474;59.468;18.040;2023-05-07T08:03:11;2.00;;;0.93;;
50379;SDS011;37474;59.468;18.040;2023-05-07T08:05:40;4.13;;;1.20;;
50379;SDS011;37474;59.468;18.040;2023-05-07T08:08:08;1.47;;;1.10;;
50379;SDS011;37474;59.468;18.040;2023-05-07T08:10:36;4.00;;;1.20;;
50379;SDS011;37474;59.468;18.040;2023-05-07T08:13:05;3.67;;;1.60;;
50379;SDS011;37474;59.468;18.040;2023-05-07T08:15:34;2.07;;;0.87;;
50379;SDS011;37474;59.468;18.040;2023-05-07T08:18:03;2.87;;;1.07;;
50379;SDS011;37474;59.468;18.040;2023-05-07T08:20:31;0.93;;;0.80;;
50379;SDS011;37474;59.468;18.040;2023-05-07T08:23:02;2.07;;;1.00;;
50379;SDS011;37474;59.468;18.040;2023-05-07T08:25:30;1.30;;;0.90;;
50379;SDS011;37474;59.468;18.040;2023-05-07T08:28:00;2.85;;;1.08;;
50379;SDS011;37474;59.468;18.040;2023-05-07T08:30:29;1.90;;;1.00;;
50379;SDS011;37474;59.468;18.040;2023-05-07T08:32:57;3.13;;;1.13;;
50379;SDS011;37474;59.468;18.040;2023-05-07T08:35:27;2.87;;;0.97;;
50379;SDS011;37474;59.468;18.040;2023-05-07T08:37:55;2.72;;;1.40;;
50379;SDS011;37474;59.468;18.040;2023-05-07T08:40:24;2.17;;;1.10;;
50379;SDS011;37474;59.468;18.040;2023-05-07T08:42:53;4.10;;;1.20;;
50379;SDS011;37474;59.468;18.040;2023-05-07T08:45:21;3.30;;;1.20;;
50379;SDS011;37474;59.468;18.040;2023-05-07T08:47:51;3.93;;;1.07;;
50379;SDS011;37474;59.468;18.040;2023-05-07T08:50:22;2.17;;;1.43;;
50379;SDS011;37474;59.468;18.040;2023-05-07T08:52:52;2.97;;;1.30;;
50379;SDS011;37474;59.468;18.040;2023-05-07T08:55:20;2.72;;;1.25;;
50379;SDS011;37474;59.468;18.040;2023-05-07T08:57:49;3.63;;;1.33;;
50379;SDS011;37474;59.468;18.040;2023-05-07T09:00:19;3.22;;;0.93;;
50379;SDS011;37474;59.468;18.040;2023-05-07T09:02:47;1.70;;;1.13;;
50379;SDS011;37474;59.468;18.040;2023-05-07T09:05:15;2.77;;;1.10;;
50379;SDS011;37474;59.468;18.040;2023-05-07T09:07:43;3.27;;;1.20;;
50379;SDS011;37474;59.468;18.040;2023-05-07T09:10:13;3.50;;;1.10;;
50379;SDS011;37474;59.468;18.040;2023-05-07T09:12:42;7.60;;;1.00;;
50379;SDS011;37474;59.468;18.040;2023-05-07T09:15:10;4.50;;;1.20;;
50379;SDS011;37474;59.468;18.040;2023-05-07T09:17:38;1.70;;;1.03;;
50379;SDS011;37474;59.468;18.040;2023-05-07T09:20:07;1.70;;;1.00;;
50379;SDS011;37474;59.468;18.040;2023-05-07T09:22:36;5.73;;;1.10;;
50379;SDS011;37474;59.468;18.040;2023-05-07T09:25:05;2.80;;;0.90;;
50379;SDS011;37474;59.468;18.040;2023-05-07T09:27:37;3.13;;;1.77;;
50379;SDS011;37474;59.468;18.040;2023-05-07T09:30:06;2.22;;;1.00;;
50379;SDS011;37474;59.468;18.040;2023-05-07T09:32:35;1.60;;;0.80;;
50379;SDS011;37474;59.468;18.040;2023-05-07T09:35:05;3.70;;;1.10;;
50379;SDS011;37474;59.468;18.040;2023-05-07T09:37:33;4.07;;;1.40;;
50379;SDS011;37474;59.468;18.040;2023-05-07T09:40:03;2.87;;;1.20;;
50379;SDS011;37474;59.468;18.040;2023-05-07T09:42:33;2.95;;;1.17;;
50379;SDS011;37474;59.468;18.040;2023-05-07T09:45:02;2.03;;;0.90;;
50379;SDS011;37474;59.468;18.040;2023-05-07T09:47:33;1.73;;;1.07;;
50379;SDS011;37474;59.468;18.040;2023-05-07T09:50:06;2.43;;;1.30;;
50379;SDS011;37474;59.468;18.040;2023-05-07T09:52:38;1.73;;;1.10;;
50379;SDS011;37474;59.468;18.040;2023-05-07T09:55:08;2.60;;;1.17;;
50379;SDS011;37474;59.468;18.040;2023-05-07T09:57:37;2.97;;;1.20;;
50379;SDS011;37474;59.468;18.040;2023-05-07T10:00:11;2.03;;;1.00;;
50379;SDS011;37474;59.468;18.040;2023-05-07T10:02:40;3.37;;;1.10;;
50379;SDS011;37474;59.468;18.040;2023-05-07T10:05:14;1.97;;;1.10;;
50379;SDS011;37474;59.468;18.040;2023-05-07T10:07:42;1.77;;;1.00;;
50379;SDS011;37474;59.468;18.040;2023-05-07T10:10:11;2.87;;;1.20;;
50379;SDS011;37474;59.468;18.040;2023-05-07T10:12:40;1.90;;;1.10;;
50379;SDS011;37474;59.468;18.040;2023-05-07T10:15:10;3.83;;;1.20;;
50379;SDS011;37474;59.468;18.040;2023-05-07T10:17:40;3.97;;;1.30;;
50379;SDS011;37474;59.468;18.040;2023-05-07T10:20:09;4.30;;;1.30;;
50379;SDS011;37474;59.468;18.040;2023-05-07T10:22:38;3.57;;;0.90;;
50379;SDS011;37474;59.468;18.040;2023-05-07T10:25:18;1.97;;;1.17;;
50379;SDS011;37474;59.468;18.040;2023-05-07T10:27:48;2.47;;;1.10;;
50379;SDS011;37474;59.468;18.040;2023-05-07T10:30:24;6.83;;;1.03;;
50379;SDS011;37474;59.468;18.040;2023-05-07T10:32:59;4.07;;;1.10;;
50379;SDS011;37474;59.468;18.040;2023-05-07T10:35:36;2.17;;;1.20;;
50379;SDS011;37474;59.468;18.040;2023-05-07T10:38:08;4.07;;;1.10;;
50379;SDS011;37474;59.468;18.040;2023-05-07T10:40:36;4.30;;;1.10;;
50379;SDS011;37474;59.468;18.040;2023-05-07T10:43:05;3.40;;;1.20;;
50379;SDS011;37474;59.468;18.040;2023-05-07T10:45:37;3.23;;;1.43;;
50379;SDS011;37474;59.468;18.040;2023-05-07T10:48:06;3.08;;;0.90;;
50379;SDS011;37474;59.468;18.040;2023-05-07T10:51:17;3.73;;;1.10;;
50379;SDS011;37474;59.468;18.040;2023-05-07T10:53:48;4.03;;;1.10;;
50379;SDS011;37474;59.468;18.040;2023-05-07T10:56:36;1.87;;;1.13;;
50379;SDS011;37474;59.468;18.040;2023-05-07T11:02:00;1.53;;;1.20;;
50379;SDS011;37474;59.468;18.040;2023-05-07T11:04:31;2.63;;;1.20;;
50379;SDS011;37474;59.468;18.040;2023-05-07T11:09:59;3.47;;;1.00;;
50379;SDS011;37474;59.468;18.040;2023-05-07T11:12:46;1.87;;;1.10;;
50379;SDS011;37474;59.468;18.040;2023-05-07T11:18:04;5.47;;;1.30;;
50379;SDS011;37474;59.468;18.040;2023-05-07T11:20:49;2.00;;;1.10;;
50379;SDS011;37474;59.468;18.040;2023-05-07T11:26:28;2.57;;;1.40;;
50379;SDS011;37474;59.468;18.040;2023-05-07T11:28:57;2.00;;;1.20;;
50379;SDS011;37474;59.468;18.040;2023-05-07T11:31:27;4.60;;;1.30;;
50379;SDS011;37474;59.468;18.040;2023-05-07T11:33:57;1.83;;;1.33;;
50379;SDS011;37474;59.468;18.040;2023-05-07T11:36:30;2.17;;;1.33;;
50379;SDS011;37474;59.468;18.040;2023-05-07T11:38:59;3.83;;;1.10;;
50379;SDS011;37474;59.468;18.040;2023-05-07T11:41:33;7.82;;;1.45;;
50379;SDS011;37474;59.468;18.040;2023-05-07T11:44:02;1.97;;;1.17;;
50379;SDS011;37474;59.468;18.040;2023-05-07T11:46:30;2.27;;;1.30;;
50379;SDS011;37474;59.468;18.040;2023-05-07T11:49:00;2.03;;;1.00;;
50379;SDS011;37474;59.468;18.040;2023-05-07T11:51:29;3.72;;;1.10;;
50379;SDS011;37474;59.468;18.040;2023-05-07T11:53:57;6.87;;;1.20;;
50379;SDS011;37474;59.468;18.040;2023-05-07T11:56:26;1.43;;;0.90;;
50379;SDS011;37474;59.468;18.040;2023-05-07T11:58:53;2.23;;;1.40;;
50379;SDS011;37474;59.468;18.040;2023-05-07T12:01:21;4.77;;;1.00;;
50379;SDS011;37474;59.468;18.040;2023-05-07T12:03:50;2.83;;;1.13;;
50379;SDS011;37474;59.468;18.040;2023-05-07T12:06:19;3.30;;;1.20;;
50379;SDS011;37474;59.468;18.040;2023-05-07T12:08:47;3.87;;;1.63;;
50379;SDS011;37474;59.468;18.040;2023-05-07T12:11:16;4.70;;;1.00;;
50379;SDS011;37474;59.468;18.040;2023-05-07T12:13:50;2.43;;;1.00;;
50379;SDS011;37474;59.468;18.040;2023-05-07T12:16:18;4.33;;;1.30;;
50379;SDS011;37474;59.468;18.040;2023-05-07T12:18:47;2.57;;;1.30;;
50379;SDS011;37474;59.468;18.040;2023-05-07T12:21:16;3.07;;;1.37;;
50379;SDS011;37474;59.468;18.040;2023-05-07T12:23:46;2.47;;;1.27;;
50379;SDS011;37474;59.468;18.040;2023-05-07T12:26:14;5.88;;;1.50;;
50379;SDS011;37474;59.468;18.040;2023-05-07T12:28:42;1.80;;;1.10;;
50379;SDS011;37474;59.468;18.040;2023-05-07T12:31:10;1.80;;;1.00;;
50379;SDS011;37474;59.468;18.040;2023-05-07T12:33:38;2.93;;;1.20;;
50379;SDS011;37474;59.468;18.040;2023-05-07T12:36:07;1.90;;;1.07;;
50379;SDS011;37474;59.468;18.040;2023-05-07T12:38:36;3.77;;;1.27;;
50379;SDS011;37474;59.468;18.040;2023-05-07T12:41:07;2.87;;;1.00;;
50379;SDS011;37474;59.468;18.040;2023-05-07T12:43:36;1.67;;;0.90;;
50379;SDS011;37474;59.468;18.040;2023-05-07T12:46:05;6.90;;;1.30;;
50379;SDS011;37474;59.468;18.040;2023-05-07T12:48:36;4.72;;;1.20;;
50379;SDS011;37474;59.468;18.040;2023-05-07T12:53:34;3.47;;;1.10;;
50379;SDS011;37474;59.468;18.040;2023-05-07T12:56:09;1.87;;;1.00;;
50379;SDS011;37474;59.468;18.040;2023-05-07T12:58:37;2.70;;;1.20;;
50379;SDS011;37474;59.468;18.040;2023-05-07T13:01:05;3.17;;;1.07;;
50379;SDS011;37474;59.468;18.040;2023-05-07T13:03:37;4.20;;;0.90;;
50379;SDS011;37474;59.468;18.040;2023-05-07T13:06:06;2.97;;;0.75;;
50379;SDS011;37474;59.468;18.040;2023-05-07T13:08:39;4.13;;;1.00;;
50379;SDS011;37474;59.468;18.040;2023-05-07T13:11:11;1.83;;;0.93;;
50379;SDS011;37474;59.468;18.040;2023-05-07T13:13:40;4.65;;;1.10;;
50379;SDS011;37474;59.468;18.040;2023-05-07T13:16:09;5.10;;;1.08;;
50379;SDS011;37474;59.468;18.040;2023-05-07T13:18:38;2.75;;;1.02;;
50379;SDS011;37474;59.468;18.040;2023-05-07T13:21:10;1.33;;;0.88;;
50379;SDS011;37474;59.468;18.040;2023-05-07T13:23:39;3.83;;;0.93;;
50379;SDS011;37474;59.468;18.040;2023-05-07T13:26:07;3.10;;;0.95;;
50379;SDS011;37474;59.468;18.040;2023-05-07T13:28:52;0.85;;;0.70;;
50379;SDS011;37474;59.468;18.040;2023-05-07T13:31:21;2.92;;;0.88;;
50379;SDS011;37474;59.468;18.040;2023-05-07T13:33:49;2.47;;;0.90;;
50379;SDS011;37474;59.468;18.040;2023-05-07T13:36:17;2.25;;;0.80;;
50379;SDS011;37474;59.468;18.040;2023-05-07T13:38:45;2.03;;;0.85;;
50379;SDS011;37474;59.468;18.040;2023-05-07T13:41:13;3.85;;;1.00;;
50379;SDS011;37474;59.468;18.040;2023-05-07T13:43:42;1.50;;;0.80;;
50379;SDS011;37474;59.468;18.040;2023-05-07T13:46:11;2.13;;;0.70;;
50379;SDS011;37474;59.468;18.040;2023-05-07T13:48:39;1.55;;;0.88;;
50379;SDS011;37474;59.468;18.040;2023-05-07T13:51:08;3.17;;;1.15;;
50379;SDS011;37474;59.468;18.040;2023-05-07T13:53:36;2.60;;;0.93;;
50379;SDS011;37474;59.468;18.040;2023-05-07T13:56:04;1.08;;;0.80;;
50379;SDS011;37474;59.468;18.040;2023-05-07T13:58:33;2.70;;;1.10;;
50379;SDS011;37474;59.468;18.040;2023-05-07T14:01:15;3.17;;;1.05;;
50379;SDS011;37474;59.468;18.040;2023-05-07T14:03:43;2.13;;;0.80;;
50379;SDS011;37474;59.468;18.040;2023-05-07T14:06:11;2.90;;;0.90;;
50379;SDS011;37474;59.468;18.040;2023-05-07T14:08:39;1.40;;;0.90;;
50379;SDS011;37474;59.468;18.040;2023-05-07T14:11:07;2.87;;;1.00;;
50379;SDS011;37474;59.468;18.040;2023-05-07T14:13:36;1.13;;;0.85;;
50379;SDS011;37474;59.468;18.040;2023-05-07T14:16:04;3.87;;;1.00;;
50379;SDS011;37474;59.468;18.040;2023-05-07T14:18:34;1.57;;;0.83;;
50379;SDS011;37474;59.468;18.040;2023-05-07T14:21:04;2.23;;;1.10;;
50379;SDS011;37474;59.468;18.040;2023-05-07T14:23:32;4.65;;;0.90;;
50379;SDS011;37474;59.468;18.040;2023-05-07T14:26:00;4.07;;;1.40;;
50379;SDS011;37474;59.468;18.040;2023-05-07T14:28:28;4.00;;;1.37;;
50379;SDS011;37474;59.468;18.040;2023-05-07T14:30:56;3.53;;;1.23;;
50379;SDS011;37474;59.468;18.040;2023-05-07T14:33:25;2.70;;;1.10;;
50379;SDS011;37474;59.468;18.040;2023-05-07T14:35:54;2.05;;;1.17;;
50379;SDS011;37474;59.468;18.040;2023-05-07T14:38:22;2.47;;;1.00;;
50379;SDS011;37474;59.468;18.040;2023-05-07T14:40:50;2.70;;;0.82;;
50379;SDS011;37474;59.468;18.040;2023-05-07T14:43:18;3.80;;;1.10;;
50379;SDS011;37474;59.468;18.040;2023-05-07T14:45:46;3.95;;;1.10;;
50379;SDS011;37474;59.468;18.040;2023-05-07T14:48:14;2.83;;;1.10;;
50379;SDS011;37474;59.468;18.040;2023-05-07T14:50:46;3.80;;;1.00;;
50379;SDS011;37474;59.468;18.040;2023-05-07T14:53:16;2.40;;;0.82;;
50379;SDS011;37474;59.468;18.040;2023-05-07T14:55:44;7.20;;;1.10;;
50379;SDS011;37474;59.468;18.040;2023-05-07T14:58:12;2.65;;;1.10;;
50379;SDS011;37474;59.468;18.040;2023-05-07T15:00:42;4.65;;;1.17;;
50379;SDS011;37474;59.468;18.040;2023-05-07T15:03:10;2.65;;;0.98;;